Tropical Cyclones
[Index]
Main Index Home Page Stock Weather Photos Extreme Storms Discussion Storm News and Storm Chasing Reports Tropical Cyclones / Hurricanes / Typhoons Weather Data and Links Wild Fires / Bushfires Weather Observation Techniques Weather Picture Catalogue Tornado Pictures and Reports Stock Video Footage and DVDs for sale
Season 1976-1977 Tropical Cyclone TED Track Map
Season 1976-1977 Summaries: [BoM-AU] [JTWC-AU] [JTWC-SIO] [JTWC-SPAC] [JTWC-SH]
<<- Previous TC | BoM 1976-1977 Season | Next TC ->>

click for intensity scale information  Lat/long Grid: Show Hide

 Date Labels: Show Hide

Bureau of Meteorology Tropical Cyclone Data

Name: TED
Number: 563 / 197677_02

15 Dec 1976 23:00 UTC to 20 Dec 1976 23:00 UTC

    date/time    lat    long    hPa   cat  kts
1976-12-15 23   12.6   140.5   1005                     
1976-12-16 05   12.7   140.1   1001                     
1976-12-16 11   12.8   139.7    997                     
1976-12-16 17   12.9   139.3    994    1                
1976-12-16 23   13.0   139.0    990    1                
1976-12-17 05   13.0   138.8    982    2                
1976-12-17 11   13.1   138.6    974    2                
1976-12-17 17   13.1   138.4    969    3                
1976-12-17 23   13.2   138.1    964    3                
1976-12-18 02   13.5   137.9    963    3                
1976-12-18 05   13.8   137.7    962    3                
1976-12-18 08   14.2   137.8    961    3                
1976-12-18 11   14.7   137.9    960    3                
1976-12-18 17   15.4   138.3    955    4                
1976-12-18 23   16.1   138.7    950    4                
1976-12-19 02   16.6   139.0    950    4                
1976-12-19 05   17.1   139.2    950    4                
1976-12-19 08   17.5   139.4    950    4                
1976-12-19 11   17.9   139.7    950    4                
1976-12-19 14   18.4   140.2    960    3                
1976-12-19 17   18.8   140.6    970    3                
1976-12-19 20   19.2   140.7    980    2                
1976-12-19 23   19.5   140.8    985    2                
1976-12-20 05   19.8   140.8    988    1                
1976-12-20 11   20.1   140.8    992    1                
1976-12-20 17   20.4   140.8    996                     
1976-12-20 23   20.7   140.8   1000                     
Winds are 10-min average.

Tropical cyclone tracks developed by Michael Bath using data from the Bureau of Meteorology and Google Maps.


[Australian Severe Weather index] [Copyright Notice] [Email Contacts] [Search This Site] [Privacy Policy]
Document: tropical_cyclone_ted.htm Updated: 30 May 2013